Time;durP1;ratioP1;P1;durP2;ratioP2;P2;SDS_P1;SDS_P2;PMS_P1;PMS_P2;Temp;Humidity;BMP_temperature;BMP_pressure;BME280_temperature;BME280_humidity;BME280_pressure;Samples;Min_cycle;Max_cycle;Signal;HPM_P1;HPM_P2
2023/03/26 00:02:38;;;;;;;8.93;1.55;;;;;;;8.44;100.00;99847.53;20943204;28;20067;-78
2023/03/26 00:12:40;;;;;;;4.93;1.10;;;;;;;8.36;100.00;99846.78;20942470;28;20045;-78
2023/03/26 00:22:41;;;;;;;5.78;1.17;;;;;;;8.27;100.00;99846.03;20946115;28;20048;-77
2023/03/26 00:32:42;;;;;;;8.70;1.40;;;;;;;8.17;100.00;99829.66;20955405;28;20055;-78
2023/03/26 00:42:54;;;;;;;8.07;1.48;;;;;;;8.14;100.00;99824.47;20935119;28;20053;-78
2023/03/26 00:52:55;;;;;;;7.93;1.55;;;;;;;7.97;100.00;99817.78;20944346;28;20052;-78
2023/03/26 01:02:57;;;;;;;5.95;1.58;;;;;;;7.88;100.00;99796.19;20945993;28;20052;-76
2023/03/26 01:12:59;;;;;;;6.85;1.60;;;;;;;7.97;100.00;99785.63;20950640;28;20476;-77
2023/03/26 01:23:00;;;;;;;6.50;1.60;;;;;;;8.04;100.00;99775.97;20949623;28;20563;-77
2023/03/26 01:33:02;;;;;;;6.50;1.70;;;;;;;8.12;100.00;99753.25;20955023;28;20394;-78
2023/03/26 01:43:03;;;;;;;9.88;1.70;;;;;;;8.15;100.00;99742.78;20967954;28;20382;-78
2023/03/26 01:53:04;;;;;;;8.75;1.50;;;;;;;8.08;100.00;99718.53;20961785;28;20049;-78
2023/03/26 02:03:07;;;;;;;6.80;2.10;;;;;;;7.94;100.00;99694.44;20957100;28;20118;-78
2023/03/26 02:13:08;;;;;;;5.40;1.58;;;;;;;7.75;100.00;99686.06;20956399;28;20490;-78
2023/03/26 02:23:10;;;;;;;7.78;1.50;;;;;;;7.74;100.00;99665.25;20954392;28;20053;-79
2023/03/26 02:33:14;;;;;;;8.63;1.90;;;;;;;7.61;100.00;99641.13;20958626;28;20049;-77
2023/03/26 02:43:15;;;;;;;7.73;1.50;;;;;;;7.47;100.00;99630.91;20957747;28;20058;-77
2023/03/26 02:53:17;;;;;;;7.85;1.33;;;;;;;7.38;100.00;99624.13;20939374;28;20057;-77
2023/03/26 03:03:18;;;;;;;9.30;1.95;;;;;;;7.32;100.00;99603.34;20951632;28;20056;-76
2023/03/26 03:13:20;;;;;;;9.60;2.38;;;;;;;7.22;100.00;99586.16;20959939;28;20059;-76
2023/03/26 03:23:21;;;;;;;6.13;1.38;;;;;;;7.27;100.00;99558.31;20958096;28;20502;-77
2023/03/26 03:33:22;;;;;;;8.35;1.90;;;;;;;7.32;100.00;99550.41;20945206;28;20103;-78
2023/03/26 03:43:24;;;;;;;8.68;2.00;;;;;;;7.38;100.00;99526.91;20939836;28;20056;-78
2023/03/26 03:53:25;;;;;;;8.30;2.45;;;;;;;7.40;100.00;99512.97;20941915;28;20056;-77
2023/03/26 04:03:26;;;;;;;9.10;1.80;;;;;;;7.43;100.00;99494.69;20961619;28;20465;-77
2023/03/26 04:13:35;;;;;;;6.82;2.22;;;;;;;7.45;100.00;99473.81;20938234;28;20063;-77
2023/03/26 04:23:36;;;;;;;7.60;1.60;;;;;;;7.49;100.00;99448.59;20961311;28;20090;-77
2023/03/26 04:33:40;;;;;;;7.43;1.92;;;;;;;7.51;100.00;99423.34;20958228;28;20045;-78
2023/03/26 04:43:46;;;;;;;7.90;1.60;;;;;;;7.55;100.00;99435.44;20947588;28;20086;-78
2023/03/26 04:53:47;;;;;;;10.25;2.42;;;;;;;7.60;100.00;99417.97;20963277;28;20197;-78
2023/03/26 05:03:48;;;;;;;8.93;2.33;;;;;;;7.63;100.00;99399.69;20974062;28;20049;-77
2023/03/26 05:13:50;;;;;;;10.10;1.98;;;;;;;7.65;100.00;99366.63;20965512;28;20057;-77
2023/03/26 05:23:51;;;;;;;11.85;2.70;;;;;;;7.67;100.00;99357.06;20961459;28;20049;-78
2023/03/26 05:33:53;;;;;;;7.63;2.35;;;;;;;7.61;100.00;99337.16;20959507;28;20044;-78
2023/03/26 05:43:55;;;;;;;8.43;2.50;;;;;;;7.63;100.00;99291.13;20964287;28;20087;-78
2023/03/26 05:53:56;;;;;;;8.52;2.50;;;;;;;7.44;100.00;99279.38;20963022;28;20053;-78
2023/03/26 06:03:57;;;;;;;15.68;3.13;;;;;;;7.61;100.00;99284.22;20950148;28;20044;-78
2023/03/26 06:13:59;;;;;;;11.20;4.00;;;;;;;7.73;100.00;99257.91;20950798;28;20417;-78
2023/03/26 06:24:00;;;;;;;12.02;4.30;;;;;;;7.81;100.00;99242.97;20967809;28;20056;-78
2023/03/26 06:34:01;;;;;;;14.38;4.03;;;;;;;7.85;100.00;99228.09;20969927;28;20055;-78
2023/03/26 06:44:03;;;;;;;11.07;4.07;;;;;;;7.85;100.00;99238.50;20956172;28;20069;-78
2023/03/26 06:54:04;;;;;;;9.43;2.30;;;;;;;7.85;100.00;99226.34;20946099;28;20047;-78
2023/03/26 07:04:05;;;;;;;7.38;1.85;;;;;;;7.98;100.00;99214.75;20969982;28;20098;-78
2023/03/26 07:14:07;;;;;;;8.55;2.08;;;;;;;8.10;100.00;99208.38;20962334;28;20483;-79
2023/03/26 07:24:08;;;;;;;13.30;4.82;;;;;;;8.07;100.00;99192.81;20941460;28;20075;-78
2023/03/26 07:34:10;;;;;;;11.18;4.70;;;;;;;8.06;100.00;99172.00;20944189;28;20341;-78
2023/03/26 07:44:11;;;;;;;13.82;4.75;;;;;;;8.21;100.00;99138.56;20974954;28;20052;-78
2023/03/26 07:54:12;;;;;;;12.25;5.65;;;;;;;8.29;100.00;99125.34;20966949;28;20060;-78
2023/03/26 08:04:14;;;;;;;11.63;3.28;;;;;;;8.23;100.00;99123.72;20970077;28;20049;-78
2023/03/26 08:14:26;;;;;;;10.82;4.20;;;;;;;8.31;100.00;99131.34;20978765;28;20049;-78
2023/03/26 08:24:27;;;;;;;16.33;4.78;;;;;;;8.31;100.00;99146.16;20973355;28;20048;-78
2023/03/26 08:34:29;;;;;;;10.80;3.72;;;;;;;8.44;100.00;99132.78;20952465;28;20041;-78
2023/03/26 08:44:30;;;;;;;9.02;3.28;;;;;;;8.94;100.00;99125.25;20961219;28;20048;-77
2023/03/26 08:54:31;;;;;;;7.00;2.45;;;;;;;9.99;100.00;99121.03;20958942;23;20531;-69
2023/03/26 09:04:33;;;;;;;9.45;2.50;;;;;;;9.92;100.00;99121.31;20886530;28;20060;-69
2023/03/26 09:14:34;;;;;;;9.05;2.60;;;;;;;9.56;100.00;99123.38;20882938;28;20069;-73
2023/03/26 09:24:35;;;;;;;7.10;2.20;;;;;;;9.29;100.00;99120.69;20886837;28;20061;-74
2023/03/26 09:34:37;;;;;;;8.77;2.55;;;;;;;9.31;100.00;99091.94;20883706;28;20060;-73
2023/03/26 09:44:38;;;;;;;9.50;2.22;;;;;;;9.41;100.00;99068.09;20901714;28;20452;-70
2023/03/26 09:54:43;;;;;;;8.40;2.20;;;;;;;9.52;100.00;99065.97;20917946;28;20677;-68
2023/03/26 10:04:44;;;;;;;;;;;;;;;10.13;100.00;99046.50;20982665;28;20051;-69
2023/03/26 10:14:46;;;;;;;14.95;3.47;;;;;;;10.55;100.00;99030.19;20979361;28;19925;-69
2023/03/26 10:24:47;;;;;;;9.30;2.55;;;;;;;11.49;100.00;99010.69;20977474;28;20052;-70
2023/03/26 10:34:50;;;;;;;4.75;1.48;;;;;;;12.04;100.00;98999.66;20977247;28;20473;-71
2023/03/26 10:44:51;;;;;;;5.75;1.45;;;;;;;11.89;100.00;99016.91;20978113;28;20059;-72
2023/03/26 10:54:53;;;;;;;5.68;1.15;;;;;;;12.52;100.00;99017.59;20977896;28;20071;-72
2023/03/26 11:04:54;;;;;;;6.50;1.00;;;;;;;11.61;100.00;99050.44;20975471;28;20056;-72
2023/03/26 11:14:55;;;;;;;10.05;3.10;;;;;;;11.40;100.00;99049.53;20974724;28;20056;-71
2023/03/26 11:24:57;;;;;;;6.32;1.15;;;;;;;11.54;100.00;99041.94;20973028;28;20053;-72
2023/03/26 11:34:58;;;;;;;3.83;0.80;;;;;;;12.42;100.00;99032.06;20972865;28;20511;-72
2023/03/26 11:45:00;;;;;;;4.32;0.68;;;;;;;12.89;98.30;99047.41;20972544;28;20459;-72
2023/03/26 11:55:02;;;;;;;3.33;0.70;;;;;;;13.23;70.88;99020.41;20970550;28;20048;-73
2023/03/26 12:05:04;;;;;;;3.85;0.50;;;;;;;13.32;69.21;99017.31;20965137;28;20140;-72
2023/03/26 12:15:06;;;;;;;5.90;1.00;;;;;;;13.12;68.63;99003.41;20970357;28;20059;-72
2023/03/26 12:25:08;;;;;;;4.55;0.80;;;;;;;13.21;70.66;98995.91;20968899;28;20116;-72
2023/03/26 12:35:09;;;;;;;5.90;0.90;;;;;;;13.24;71.76;98994.97;20967887;28;20053;-72
2023/03/26 12:45:11;;;;;;;4.03;0.95;;;;;;;13.40;65.43;98980.13;20970843;28;20050;-72
2023/03/26 12:55:12;;;;;;;6.65;0.93;;;;;;;13.38;66.33;98971.47;20962646;28;20070;-72
2023/03/26 13:05:13;;;;;;;4.20;0.75;;;;;;;13.07;66.85;98949.28;20967583;28;20124;-72
2023/03/26 13:15:15;;;;;;;7.20;1.30;;;;;;;13.24;70.66;98955.53;20975866;28;20052;-71
2023/03/26 13:25:16;;;;;;;11.27;1.42;;;;;;;13.41;70.79;98947.66;20982158;28;20063;-71
2023/03/26 13:35:19;;;;;;;7.20;1.80;;;;;;;13.47;70.32;98944.72;20982070;28;20591;-72
2023/03/26 13:45:20;;;;;;;5.75;1.10;;;;;;;13.26;69.74;98951.88;20979710;28;20057;-71
2023/03/26 13:55:22;;;;;;;5.55;1.00;;;;;;;12.86;72.27;98974.00;20971275;28;20059;-67
2023/03/26 14:05:24;;;;;;;4.78;0.73;;;;;;;11.23;91.85;99047.59;20979552;28;20143;-68
2023/03/26 14:15:25;;;;;;;5.03;1.25;;;;;;;9.86;100.00;99075.28;20978323;28;20053;-67
2023/03/26 14:25:27;;;;;;;2.97;0.88;;;;;;;9.29;100.00;99084.13;20976553;28;20060;-66
2023/03/26 14:35:30;;;;;;;7.53;1.30;;;;;;;9.05;100.00;99070.09;20977973;28;20546;-67
2023/03/26 14:45:31;;;;;;;5.15;1.55;;;;;;;9.20;100.00;99068.78;20881468;22;20076;-78
2023/03/26 14:55:34;;;;;;;3.95;0.95;;;;;;;9.39;100.00;99049.00;20840266;23;20103;-71
2023/03/26 15:05:35;;;;;;;6.55;1.90;;;;;;;9.26;100.00;99047.69;20977813;28;20047;-71
2023/03/26 15:15:36;;;;;;;5.45;1.15;;;;;;;8.99;100.00;99045.03;20976549;28;20083;-71
2023/03/26 15:25:38;;;;;;;6.57;1.30;;;;;;;9.07;100.00;99038.72;20976877;28;20234;-71
2023/03/26 15:35:40;;;;;;;7.22;1.48;;;;;;;9.05;100.00;99061.41;20971670;28;20522;-71
2023/03/26 15:45:41;;;;;;;5.68;1.20;;;;;;;8.98;100.00;99069.44;20976187;28;20151;-71
2023/03/26 15:55:44;;;;;;;3.53;0.77;;;;;;;8.99;100.00;99081.59;20975856;28;20556;-71
2023/03/26 16:05:46;;;;;;;3.90;1.20;;;;;;;8.93;100.00;99073.94;20974187;28;20052;-71
2023/03/26 16:15:50;;;;;;;6.72;2.72;;;;;;;8.65;100.00;99104.38;20973744;28;20082;-71
2023/03/26 16:25:51;;;;;;;4.60;1.10;;;;;;;8.73;100.00;99107.63;20972682;28;20503;-71
2023/03/26 16:35:54;;;;;;;2.05;0.80;;;;;;;8.65;100.00;99117.41;20972688;28;20650;-71
2023/03/26 16:45:56;;;;;;;4.55;1.30;;;;;;;8.66;100.00;99112.13;20981773;28;20498;-71
2023/03/26 16:55:57;;;;;;;5.35;1.20;;;;;;;8.83;100.00;99110.81;20999558;28;20106;-71
2023/03/26 17:06:00;;;;;;;2.83;1.08;;;;;;;8.74;100.00;99111.94;20990693;28;20056;-71
2023/03/26 17:16:02;;;;;;;4.55;1.60;;;;;;;8.81;100.00;99102.16;20993636;28;20052;-71
2023/03/26 17:26:03;;;;;;;6.22;2.00;;;;;;;8.61;100.00;99110.56;20996037;28;20408;-71
2023/03/26 17:36:04;;;;;;;4.93;2.08;;;;;;;8.49;100.00;99124.81;20996778;28;20054;-72
2023/03/26 17:46:09;;;;;;;2.70;1.10;;;;;;;8.38;100.00;99113.81;20995293;28;20049;-71
2023/03/26 17:56:10;;;;;;;4.23;1.67;;;;;;;8.23;100.00;99115.91;20979934;28;20049;-71
2023/03/26 18:06:12;;;;;;;3.67;1.20;;;;;;;8.02;100.00;99115.63;20979868;28;20068;-71
2023/03/26 18:16:16;;;;;;;11.43;4.50;;;;;;;7.99;100.00;99116.53;20980044;28;20059;-71
2023/03/26 18:26:17;;;;;;;9.67;3.73;;;;;;;7.85;100.00;99129.06;20979147;28;20208;-72
2023/03/26 18:36:19;;;;;;;3.42;1.60;;;;;;;7.72;100.00;99133.75;20974231;28;20416;-71
2023/03/26 18:46:20;;;;;;;4.32;1.00;;;;;;;7.52;100.00;99135.94;20974985;28;20056;-71
2023/03/26 18:56:21;;;;;;;3.15;1.23;;;;;;;7.32;100.00;99128.59;20975466;28;20052;-71
2023/03/26 19:06:25;;;;;;;3.33;1.20;;;;;;;7.19;100.00;99143.66;20976425;28;20079;-71
2023/03/26 19:16:32;;;;;;;4.57;1.47;;;;;;;7.17;100.00;99130.66;20973591;28;20044;-71
2023/03/26 19:26:35;;;;;;;3.10;1.10;;;;;;;7.02;100.00;99118.00;20971418;28;20064;-71
2023/03/26 19:36:36;;;;;;;5.05;1.40;;;;;;;7.02;100.00;99119.75;20972999;28;20056;-71
2023/03/26 19:46:37;;;;;;;4.88;1.40;;;;;;;7.17;100.00;99098.56;20972744;28;20052;-71
2023/03/26 19:56:54;;;;;;;3.65;1.40;;;;;;;7.15;100.00;99100.38;20970559;28;20070;-71
2023/03/26 20:06:56;;;;;;;4.38;1.40;;;;;;;7.07;100.00;99103.13;20971671;28;20516;-71
2023/03/26 20:16:57;;;;;;;2.50;1.10;;;;;;;7.14;100.00;99104.72;20969050;28;20094;-70
2023/03/26 20:26:58;;;;;;;4.78;1.40;;;;;;;7.09;100.00;99108.28;20969215;28;20465;-69
2023/03/26 20:37:00;;;;;;;3.88;1.27;;;;;;;7.07;100.00;99118.75;20969930;28;20053;-70
2023/03/26 20:47:01;;;;;;;5.75;1.42;;;;;;;7.09;100.00;99126.50;20969464;28;20097;-70
2023/03/26 20:57:03;;;;;;;5.40;1.50;;;;;;;7.06;100.00;99131.81;20967590;28;20053;-70
2023/03/26 21:07:06;;;;;;;5.63;1.92;;;;;;;6.85;100.00;99143.50;20965149;28;20044;-70
2023/03/26 21:17:18;;;;;;;5.23;2.00;;;;;;;6.92;100.00;99161.56;20965939;28;20396;-72
2023/03/26 21:27:21;;;;;;;5.63;1.90;;;;;;;6.97;100.00;99169.28;20875538;23;20085;-79
2023/03/26 21:37:22;;;;;;;4.40;2.00;;;;;;;7.03;100.00;99176.09;20834256;23;20448;-71
2023/03/26 21:47:24;;;;;;;9.32;2.40;;;;;;;7.01;100.00;99185.69;20781393;28;20050;-73
2023/03/26 21:57:25;;;;;;;6.03;2.00;;;;;;;6.94;100.00;99196.22;20778290;28;20417;-72
2023/03/26 22:07:26;;;;;;;4.38;1.85;;;;;;;6.92;100.00;99216.22;20777089;28;20073;-72
2023/03/26 22:17:28;;;;;;;8.48;1.65;;;;;;;6.99;100.00;99223.91;20773351;28;20053;-71
2023/03/26 22:27:29;;;;;;;5.13;1.63;;;;;;;7.00;100.00;99246.44;20771323;28;20046;-71
2023/03/26 22:37:34;;;;;;;4.10;1.30;;;;;;;7.07;100.00;99268.84;20777046;28;20564;-73
2023/03/26 22:47:35;;;;;;;;;;;;;;;7.06;100.00;99294.03;20779002;28;20462;-72
2023/03/26 22:57:37;;;;;;;1.92;0.75;;;;;;;7.05;100.00;99325.28;20773231;28;20336;-73
2023/03/26 23:07:38;;;;;;;0.55;0.40;;;;;;;7.10;100.00;99341.69;20768968;28;20058;-72
2023/03/26 23:17:40;;;;;;;1.10;0.50;;;;;;;6.96;100.00;99374.91;20773289;28;20050;-74
2023/03/26 23:27:41;;;;;;;2.53;0.60;;;;;;;6.81;100.00;99392.50;20772993;28;20054;-73
2023/03/26 23:37:43;;;;;;;1.85;0.77;;;;;;;6.77;100.00;99421.19;20771144;28;20398;-73
2023/03/26 23:47:45;;;;;;;1.50;0.70;;;;;;;6.80;100.00;99437.59;20767111;28;20362;-72
2023/03/26 23:57:47;;;;;;;1.10;0.60;;;;;;;6.79;100.00;99451.47;20763378;28;20325;-73
